Leesville, Texas
Current Conditions -  °F | °C
As of 9:15 PM on Thursday 18 Dec 2014 (Local Time) from KT20 Reporting Station
Thunderstorm Thunderstorm  
Wind Chill: 59°   Ceiling: 600
Heat Index: 59°   Visibility: 0.5mi
Dew Point: 58°   Wind: 5mph
Humidity: 97%   Direction: 20°NNE
Pressure: 30.05"   Gusts: NA
Location:  29.41°N, 97.75°W
Report Text: KT20 190315Z AUTO 02004KT 1/2SM +TSRA OVC006 15/15 A3005 RMK AO2 LTG DSNT NE THRU SW P0053 T01500145
Loading
Personal Weather Stations






























Interactive Weather Map New forecast layout! Learn more

10-Day Weather Forecast

Advertisements
Track Severe Weather on mobile